Terminal Aerodrome Forecast
Issued by NWS

Home | Current Version | Previous Version | Text Only | Print | Product List | Glossary On
Versions: 1 2 3 4 5 6 7 8 9 10 11 12
329
FTUS42 TJSJ 281740
TAFJPS
TAF
TJPS 281740Z 2818/2918 14012KT P6SM VCTS SCT030CB SCT060
     FM282330 07006KT P6SM FEW030 SCT060
     FM291300 13010KT P6SM FEW030
      AMD NOT SKED TIL 290300=

USA.gov is the U.S. government's official web portal to all federal, state and local government web resources and services.